Time;durP1;ratioP1;P1;durP2;ratioP2;P2;SDS_P1;SDS_P2;PMS_P1;PMS_P2;Temp;Humidity;BMP_temperature;BMP_pressure;BME280_temperature;BME280_humidity;BME280_pressure;Samples;Min_cycle;Max_cycle;Signal;HPM_P1;HPM_P2
2022/08/01 00:00:14;;;;;;;11.63;5.32;;;;;;;17.23;53.38;100165.63;4925130;29;20103;-79
2022/08/01 00:02:41;;;;;;;7.47;5.18;;;;;;;17.22;53.71;100176.22;4935090;29;20084;-79
2022/08/01 00:05:08;;;;;;;7.85;4.88;;;;;;;17.14;53.95;100166.66;4920364;29;20060;-79
2022/08/01 00:07:36;;;;;;;7.40;5.00;;;;;;;17.01;54.11;100162.50;4919821;29;20048;-80
2022/08/01 00:10:04;;;;;;;6.32;4.80;;;;;;;16.89;54.37;100154.81;4934047;29;20066;-79
2022/08/01 00:12:31;;;;;;;8.07;5.10;;;;;;;16.66;54.38;100119.13;4919425;29;20048;-81
2022/08/01 00:14:58;;;;;;;9.75;5.28;;;;;;;16.88;54.57;100168.91;4919455;29;20064;-80
2022/08/01 00:17:25;;;;;;;9.80;5.00;;;;;;;16.85;54.34;100163.69;4919745;29;20064;-80
2022/08/01 00:19:52;;;;;;;8.27;4.93;;;;;;;16.64;54.27;100123.56;4902104;29;20139;-80
2022/08/01 00:22:19;;;;;;;10.93;5.18;;;;;;;16.85;54.82;100168.97;4919241;29;20094;-78
2022/08/01 00:24:46;;;;;;;7.93;4.85;;;;;;;16.76;54.82;100167.31;4934410;29;20064;-80
2022/08/01 00:27:13;;;;;;;7.05;4.90;;;;;;;16.64;54.97;100155.19;4919198;29;20066;-79
2022/08/01 00:29:40;;;;;;;8.05;5.43;;;;;;;16.64;55.38;100171.03;4902061;29;20067;-78
2022/08/01 00:32:31;;;;;;;8.30;5.40;;;;;;;16.52;55.90;100163.31;4919363;29;20084;-79
2022/08/01 00:34:57;;;;;;;10.65;5.78;;;;;;;16.16;56.38;100111.16;4918800;29;20052;-80
2022/08/01 00:37:24;;;;;;;10.70;5.90;;;;;;;16.31;56.42;100154.84;4919016;29;20521;-80
2022/08/01 00:39:51;;;;;;;10.35;5.57;;;;;;;16.31;56.48;100154.00;4918906;29;20056;-79
2022/08/01 00:42:18;;;;;;;9.82;5.60;;;;;;;16.26;56.44;100163.72;4919213;29;20150;-80
2022/08/01 00:44:45;;;;;;;10.15;5.65;;;;;;;16.29;56.48;100161.06;4918542;29;20400;-79
2022/08/01 00:47:12;;;;;;;7.15;5.25;;;;;;;16.01;56.47;100124.56;4919087;29;20150;-79
2022/08/01 00:49:39;;;;;;;7.88;5.82;;;;;;;16.22;56.60;100169.91;4918449;29;20058;-79
2022/08/01 00:52:08;;;;;;;10.45;5.90;;;;;;;16.23;56.76;100163.78;4917570;29;20078;-79
2022/08/01 00:54:35;;;;;;;8.98;5.35;;;;;;;16.02;56.33;100121.03;4918821;29;20048;-78
2022/08/01 00:57:03;;;;;;;9.63;5.97;;;;;;;16.25;56.20;100148.81;4918801;29;20047;-79
2022/08/01 00:59:36;;;;;;;11.65;6.63;;;;;;;16.07;56.33;100116.56;4902783;29;20059;-79
2022/08/01 01:02:07;;;;;;;8.63;5.95;;;;;;;16.32;56.26;100167.13;4918883;29;20074;-79
2022/08/01 01:04:42;;;;;;;9.63;5.97;;;;;;;16.29;56.31;100174.22;4920707;29;20463;-79
2022/08/01 01:07:19;;;;;;;7.97;5.47;;;;;;;16.22;56.86;100168.19;4937443;29;20498;-78
2022/08/01 01:09:58;;;;;;;8.80;6.25;;;;;;;16.14;56.68;100165.66;4936725;29;20051;-79
2022/08/01 01:12:38;;;;;;;7.05;5.13;;;;;;;16.03;57.11;100149.13;4952883;28;20056;-79
2022/08/01 01:15:15;;;;;;;9.63;5.65;;;;;;;16.07;57.08;100155.25;4937860;29;20060;-78
2022/08/01 01:17:48;;;;;;;8.73;5.57;;;;;;;15.82;57.35;100128.34;4937854;29;20067;-79
2022/08/01 01:20:20;;;;;;;9.50;5.80;;;;;;;16.05;57.53;100170.19;4929615;29;20059;-79
2022/08/01 01:23:00;;;;;;;8.82;5.20;;;;;;;16.09;57.31;100167.50;4917865;29;20070;-79
2022/08/01 01:26:29;;;;;;;11.15;5.75;;;;;;;15.91;56.69;100123.81;4918423;29;20114;-79
2022/08/01 01:29:08;;;;;;;11.23;6.05;;;;;;;16.19;56.98;100168.22;4841141;29;20088;-79
2022/08/01 01:31:57;;;;;;;9.52;5.22;;;;;;;16.17;56.84;100159.44;4841186;29;20149;-80
2022/08/01 01:34:27;;;;;;;9.77;5.72;;;;;;;16.16;57.15;100168.28;4896470;29;20080;-78
2022/08/01 01:36:58;;;;;;;10.00;6.45;;;;;;;16.20;57.01;100167.34;4917605;29;20079;-81
2022/08/01 01:39:28;;;;;;;8.70;6.03;;;;;;;16.23;57.25;100175.19;4909784;29;20056;-81
2022/08/01 01:41:58;;;;;;;8.63;5.50;;;;;;;16.10;56.92;100142.88;4901089;29;20518;-81
2022/08/01 01:44:27;;;;;;;14.50;6.60;;;;;;;16.25;57.15;100162.84;4918217;29;20059;-81
2022/08/01 01:46:56;;;;;;;11.37;6.27;;;;;;;16.26;57.04;100159.34;4927580;29;20514;-80
2022/08/01 01:49:28;;;;;;;8.77;6.65;;;;;;;16.23;57.26;100153.22;4934048;28;20055;-80
2022/08/01 01:51:57;;;;;;;8.77;6.10;;;;;;;16.31;56.92;100149.59;4917707;29;20052;-81
2022/08/01 01:54:33;;;;;;;8.13;5.07;;;;;;;16.31;57.10;100159.25;4918190;29;20533;-80
2022/08/01 01:57:03;;;;;;;10.18;5.38;;;;;;;16.38;56.98;100167.03;4917594;29;20515;-82
2022/08/01 01:59:34;;;;;;;9.23;6.35;;;;;;;16.41;57.13;100166.09;4898844;29;20056;-82
2022/08/01 02:02:03;;;;;;;8.95;5.70;;;;;;;16.43;56.94;100161.69;4898702;29;20052;-81
2022/08/01 02:04:35;;;;;;;6.78;4.35;;;;;;;16.41;56.69;100146.78;4898599;29;20095;-78
2022/08/01 02:07:03;;;;;;;5.60;3.92;;;;;;;16.55;56.26;100163.28;4898648;29;20063;-79
2022/08/01 02:09:31;;;;;;;8.73;4.50;;;;;;;16.57;56.22;100164.97;4912116;29;20056;-80
2022/08/01 02:12:00;;;;;;;7.72;4.10;;;;;;;16.47;56.09;100131.75;4916963;29;20426;-79
2022/08/01 02:14:56;;;;;;;7.25;4.10;;;;;;;16.67;56.06;100159.53;4916587;29;20070;-79
2022/08/01 02:17:25;;;;;;;6.18;4.32;;;;;;;16.75;55.62;100161.16;4916477;29;20112;-80
2022/08/01 02:19:53;;;;;;;7.65;3.75;;;;;;;16.84;55.39;100156.66;4917183;29;20569;-78
2022/08/01 02:22:33;;;;;;;5.05;3.85;;;;;;;16.83;55.24;100150.50;4923256;29;20051;-78
2022/08/01 02:25:07;;;;;;;6.90;3.75;;;;;;;16.76;55.03;100123.34;4925928;29;20059;-79
2022/08/01 02:27:58;;;;;;;5.10;3.55;;;;;;;16.94;54.80;100137.13;4931905;29;20056;-78
2022/08/01 02:30:30;;;;;;;5.82;4.00;;;;;;;17.14;54.55;100152.59;4916731;29;20499;-79
2022/08/01 02:33:04;;;;;;;5.85;3.63;;;;;;;17.16;53.94;100130.56;4917269;29;20521;-79
2022/08/01 02:35:38;;;;;;;5.50;3.60;;;;;;;17.29;53.53;100128.53;4900392;29;20056;-79
2022/08/01 02:38:28;;;;;;;6.40;3.90;;;;;;;17.53;53.37;100150.94;4916398;29;20108;-81
2022/08/01 02:40:59;;;;;;;4.25;3.35;;;;;;;17.67;52.81;100149.78;4916946;29;20143;-81
2022/08/01 02:43:30;;;;;;;6.00;3.92;;;;;;;17.68;52.65;100114.53;4914326;29;20537;-81
2022/08/01 02:46:02;;;;;;;12.07;4.68;;;;;;;18.27;51.61;100151.13;4917181;29;20134;-80
2022/08/01 02:48:33;;;;;;;9.57;6.05;;;;;;;20.07;48.32;100149.78;4930274;29;20052;-81
2022/08/01 02:51:01;;;;;;;5.65;4.10;;;;;;;22.69;41.46;100112.78;4935882;29;20066;-81
2022/08/01 02:53:36;;;;;;;5.78;4.53;;;;;;;24.96;37.48;100140.41;4935899;29;20517;-80
2022/08/01 02:56:11;;;;;;;;;;;;;;;26.36;37.11;100132.78;4936235;29;20122;-80
2022/08/01 02:58:40;;;;;;;8.98;4.47;;;;;;;26.89;33.51;100119.91;4935762;29;19931;-80
2022/08/01 03:01:09;;;;;;;8.80;4.45;;;;;;;27.78;32.17;100135.84;4935650;29;20059;-80
2022/08/01 03:03:37;;;;;;;7.82;5.00;;;;;;;28.87;30.27;100134.06;4935799;29;20060;-80
2022/08/01 03:06:05;;;;;;;7.80;5.35;;;;;;;30.19;28.33;100150.75;4935272;29;20530;-81
2022/08/01 03:08:34;;;;;;;5.55;4.90;;;;;;;31.23;27.03;100150.09;4935463;29;20063;-80
2022/08/01 03:11:03;;;;;;;9.45;5.88;;;;;;;31.98;26.00;100133.31;4935355;29;20052;-81
2022/08/01 03:13:32;;;;;;;8.13;4.57;;;;;;;32.61;24.68;100122.72;4935505;29;20055;-81
2022/08/01 03:16:00;;;;;;;11.60;5.47;;;;;;;33.62;23.62;100123.94;4935430;29;20048;-80
2022/08/01 03:18:29;;;;;;;4.97;4.47;;;;;;;34.61;22.42;100142.06;4935834;29;20052;-81
2022/08/01 03:20:59;;;;;;;8.68;5.25;;;;;;;35.22;21.61;100139.03;4922111;29;20060;-79
2022/08/01 03:23:30;;;;;;;5.75;4.53;;;;;;;35.87;20.59;100143.66;4916456;29;20096;-79
2022/08/01 03:26:05;;;;;;;5.75;4.22;;;;;;;35.94;20.37;100149.34;4916534;29;20059;-80
2022/08/01 03:28:32;;;;;;;8.30;5.03;;;;;;;36.21;20.61;100151.22;4916472;29;20425;-80
2022/08/01 03:31:01;;;;;;;8.65;5.25;;;;;;;36.66;20.05;100132.13;4904082;29;20052;-80
2022/08/01 03:33:28;;;;;;;;;;;;;;;37.53;21.44;100145.81;4937041;29;20062;-80
2022/08/01 03:35:58;;;;;;;9.57;5.22;;;;;;;38.10;18.64;100148.00;4955242;28;19938;-80
2022/08/01 03:38:28;;;;;;;8.73;4.80;;;;;;;38.28;18.31;100120.56;4940118;29;20066;-81
2022/08/01 03:41:11;;;;;;;4.70;4.20;;;;;;;38.39;18.41;100135.75;4938949;29;20407;-80
2022/08/01 03:43:43;;;;;;;5.90;3.88;;;;;;;38.50;17.60;100141.75;4939310;29;20529;-80
2022/08/01 03:46:35;;;;;;;6.40;3.78;;;;;;;38.59;17.88;100139.03;4939086;29;20118;-79
2022/08/01 03:49:07;;;;;;;6.05;4.13;;;;;;;38.62;17.52;100141.44;4922208;29;20174;-80
2022/08/01 03:51:36;;;;;;;7.20;4.20;;;;;;;38.61;16.94;100131.53;4939685;29;20055;-79
2022/08/01 03:54:05;;;;;;;6.80;4.10;;;;;;;39.09;16.99;100136.16;4939086;29;20081;-80
2022/08/01 03:56:33;;;;;;;4.50;4.10;;;;;;;39.14;16.94;100132.88;4938940;29;20091;-79
2022/08/01 03:59:02;;;;;;;5.95;4.15;;;;;;;39.94;16.34;100115.56;4939025;29;20087;-78
2022/08/01 04:01:33;;;;;;;7.05;4.50;;;;;;;40.40;15.87;100120.22;4922137;29;20063;-77
2022/08/01 04:04:01;;;;;;;7.00;4.40;;;;;;;40.49;15.93;100125.47;4920399;29;20082;-78
2022/08/01 04:06:29;;;;;;;6.03;3.35;;;;;;;39.67;16.22;100120.44;4920074;29;20058;-79
2022/08/01 04:08:56;;;;;;;7.28;4.20;;;;;;;37.70;18.10;100125.84;4929497;29;20060;-78
2022/08/01 04:11:25;;;;;;;7.15;4.03;;;;;;;34.55;20.82;100100.13;4948380;29;20052;-78
2022/08/01 04:13:53;;;;;;;5.95;4.28;;;;;;;32.14;24.23;100126.69;4932659;29;20055;-79
2022/08/01 04:16:22;;;;;;;4.70;4.10;;;;;;;30.52;26.78;100133.06;4923707;29;20091;-79
2022/08/01 04:18:49;;;;;;;10.20;4.03;;;;;;;29.46;28.04;100133.56;4920054;29;20060;-79
2022/08/01 04:21:20;;;;;;;4.72;3.97;;;;;;;28.56;29.46;100111.94;4919925;29;20375;-79
2022/08/01 04:23:51;;;;;;;6.20;3.50;;;;;;;27.88;30.46;100136.16;4918970;29;20487;-79
2022/08/01 04:26:21;;;;;;;9.80;4.25;;;;;;;27.45;31.49;100131.66;4919511;29;20056;-81
2022/08/01 04:28:50;;;;;;;7.30;3.58;;;;;;;27.09;32.00;100143.66;4919184;29;20056;-78
2022/08/01 04:31:18;;;;;;;4.13;3.40;;;;;;;26.74;32.63;100141.28;4919133;29;20062;-80
2022/08/01 04:33:49;;;;;;;7.85;3.50;;;;;;;26.57;32.91;100141.44;4919125;29;20112;-80
2022/08/01 04:36:19;;;;;;;4.20;3.53;;;;;;;26.18;33.67;100131.16;4919005;29;20087;-80
2022/08/01 04:38:52;;;;;;;7.47;3.70;;;;;;;25.70;34.86;100147.19;4919384;29;20080;-80
2022/08/01 04:41:21;;;;;;;6.30;3.42;;;;;;;25.33;35.17;100112.59;4918873;29;20052;-82
2022/08/01 04:43:48;;;;;;;5.20;3.80;;;;;;;25.39;35.45;100154.19;4917923;29;20134;-81
2022/08/01 04:46:17;;;;;;;6.00;3.45;;;;;;;25.23;35.35;100148.81;4919218;29;20083;-80
2022/08/01 04:48:45;;;;;;;6.85;4.20;;;;;;;25.10;35.55;100126.31;4935744;29;20103;-79
2022/08/01 04:51:15;;;;;;;6.55;4.00;;;;;;;24.98;35.73;100101.09;4919404;29;20066;-80
2022/08/01 04:53:45;;;;;;;8.60;4.40;;;;;;;25.27;35.24;100141.47;4918494;29;20535;-80
2022/08/01 04:56:12;;;;;;;6.03;3.88;;;;;;;25.22;34.90;100151.56;4918918;29;20088;-79
2022/08/01 04:58:43;;;;;;;3.78;3.22;;;;;;;25.04;35.05;100134.66;4918352;29;20510;-81
2022/08/01 05:01:11;;;;;;;5.95;3.55;;;;;;;25.06;35.02;100155.00;4918626;29;20052;-82
2022/08/01 05:03:38;;;;;;;6.15;3.30;;;;;;;24.96;35.01;100121.69;4918869;29;20059;-80
2022/08/01 05:06:05;;;;;;;3.35;2.92;;;;;;;25.04;34.77;100138.19;4940732;29;20055;-80
2022/08/01 05:08:32;;;;;;;5.20;2.83;;;;;;;24.98;35.17;100134.97;4928358;29;20115;-79
2022/08/01 05:11:00;;;;;;;6.15;2.78;;;;;;;25.10;34.74;100158.38;4926353;29;20051;-79
2022/08/01 05:13:28;;;;;;;3.95;2.90;;;;;;;25.00;34.83;100117.91;4928269;29;20138;-81
2022/08/01 05:15:55;;;;;;;4.28;3.10;;;;;;;25.20;35.04;100142.75;4925659;29;20048;-82
2022/08/01 05:18:22;;;;;;;3.92;2.80;;;;;;;25.35;35.03;100141.94;4943473;29;20110;-79
2022/08/01 05:20:54;;;;;;;4.45;3.15;;;;;;;25.40;34.78;100149.72;4928341;29;20131;-80
2022/08/01 05:23:21;;;;;;;5.00;3.28;;;;;;;25.48;35.02;100150.16;4920282;29;20508;-82
2022/08/01 05:26:13;;;;;;;6.30;3.20;;;;;;;25.45;35.12;100131.63;4927493;29;20054;-80
2022/08/01 05:28:42;;;;;;;7.22;2.80;;;;;;;25.56;35.07;100128.38;4924748;29;20056;-80
2022/08/01 05:31:09;;;;;;;4.97;2.95;;;;;;;25.82;35.02;100138.50;4927339;28;20043;-80
2022/08/01 05:33:36;;;;;;;4.47;2.75;;;;;;;25.85;34.11;100149.00;4928619;29;20075;-81
2022/08/01 05:36:03;;;;;;;3.83;2.58;;;;;;;25.77;33.98;100142.34;4920732;29;20142;-84
2022/08/01 05:38:30;;;;;;;4.25;2.65;;;;;;;25.64;33.71;100105.59;4927903;29;20048;-83
2022/08/01 05:40:57;;;;;;;5.25;3.00;;;;;;;25.93;34.11;100137.91;4926126;29;20071;-81
2022/08/01 05:43:24;;;;;;;4.20;2.58;;;;;;;26.10;33.55;100145.00;4928610;29;20063;-80
2022/08/01 05:45:55;;;;;;;7.20;2.90;;;;;;;26.02;34.18;100141.91;4926942;29;20597;-82
2022/08/01 05:48:21;;;;;;;3.97;2.60;;;;;;;26.04;34.38;100119.44;4927388;29;20638;-80
2022/08/01 05:50:49;;;;;;;6.40;2.47;;;;;;;26.13;33.57;100143.00;4929001;29;20051;-80
2022/08/01 05:53:20;;;;;;;5.35;2.70;;;;;;;26.01;32.91;100140.19;4928595;29;20052;-81
2022/08/01 05:55:47;;;;;;;4.20;2.50;;;;;;;26.00;33.18;100139.28;4925440;29;20051;-81
2022/08/01 05:58:14;;;;;;;4.95;2.88;;;;;;;26.01;33.37;100141.03;4927517;29;20054;-82
2022/08/01 06:00:42;;;;;;;4.57;2.60;;;;;;;26.18;33.39;100144.56;4936935;29;20079;-79
2022/08/01 06:03:11;;;;;;;4.05;2.40;;;;;;;26.16;32.53;100147.34;4928860;29;20068;-79
2022/08/01 06:05:38;;;;;;;7.03;2.70;;;;;;;25.92;33.26;100141.53;4928973;29;20060;-79
2022/08/01 06:08:04;;;;;;;5.03;2.92;;;;;;;26.08;33.64;100138.88;4928708;29;20067;-80
2022/08/01 06:10:32;;;;;;;6.25;2.70;;;;;;;26.00;33.75;100146.47;4928303;29;20096;-80
2022/08/01 06:13:02;;;;;;;7.25;3.10;;;;;;;25.94;34.07;100139.63;4932642;29;20059;-80
2022/08/01 06:15:31;;;;;;;5.57;2.88;;;;;;;25.67;34.16;100120.63;4931557;29;20067;-81
2022/08/01 06:17:58;;;;;;;4.97;3.08;;;;;;;25.64;34.66;100144.84;4921367;29;20060;-85
2022/08/01 06:20:25;;;;;;;5.00;3.45;;;;;;;25.61;34.69;100147.69;4919184;29;20056;-84
2022/08/01 06:22:52;;;;;;;4.85;2.80;;;;;;;25.56;34.54;100153.31;4919385;29;20155;-81
2022/08/01 06:25:20;;;;;;;4.03;2.60;;;;;;;25.58;34.91;100139.84;4918782;29;20503;-82
2022/08/01 06:27:48;;;;;;;2.80;2.30;;;;;;;25.64;34.61;100148.41;4917144;29;20052;-82
2022/08/01 06:30:15;;;;;;;3.35;2.30;;;;;;;25.68;34.58;100131.25;4917547;29;20150;-79
2022/08/01 06:32:42;;;;;;;6.97;2.60;;;;;;;25.68;34.39;100133.03;4917127;29;20364;-82
2022/08/01 06:35:09;;;;;;;2.95;2.15;;;;;;;25.66;33.34;100138.47;4918060;29;20087;-84
2022/08/01 06:37:36;;;;;;;4.72;2.40;;;;;;;25.69;33.42;100148.16;4932076;29;20059;-81
2022/08/01 06:40:06;;;;;;;2.45;1.60;;;;;;;25.61;33.42;100131.66;4917389;29;20051;-80
2022/08/01 06:42:36;;;;;;;2.13;1.92;;;;;;;25.64;33.23;100156.44;4919538;29;20104;-80
2022/08/01 06:45:03;;;;;;;2.85;2.28;;;;;;;25.64;33.25;100147.50;4927704;29;20143;-80
2022/08/01 06:47:30;;;;;;;2.92;2.38;;;;;;;25.48;33.28;100132.31;4920747;29;20150;-79
2022/08/01 06:49:57;;;;;;;4.93;2.45;;;;;;;25.65;33.14;100150.13;4923709;29;20048;-79
2022/08/01 06:52:25;;;;;;;3.97;2.05;;;;;;;25.75;33.44;100155.84;4934533;29;20084;-80
2022/08/01 06:54:52;;;;;;;2.28;1.95;;;;;;;25.76;32.69;100162.91;4951001;29;20162;-79
2022/08/01 06:57:19;;;;;;;1.90;1.80;;;;;;;25.68;33.14;100158.00;4938298;29;20092;-80
2022/08/01 06:59:46;;;;;;;3.50;1.88;;;;;;;25.42;32.62;100123.75;4941545;29;20054;-81
2022/08/01 07:02:20;;;;;;;3.35;1.90;;;;;;;25.48;32.71;100156.38;4949666;29;20051;-78
2022/08/01 07:04:47;;;;;;;6.28;1.90;;;;;;;25.44;33.15;100164.66;4963567;29;20062;-79
2022/08/01 07:07:14;;;;;;;2.15;1.95;;;;;;;25.43;33.38;100152.25;4946532;29;20075;-80
2022/08/01 07:09:42;;;;;;;4.00;1.80;;;;;;;25.66;32.94;100153.66;4927234;29;20056;-81
2022/08/01 07:12:09;;;;;;;2.85;2.00;;;;;;;25.80;32.97;100132.34;4937767;29;20502;-80
2022/08/01 07:14:36;;;;;;;4.25;2.20;;;;;;;26.13;32.13;100166.22;4922862;29;20052;-82
2022/08/01 07:17:03;;;;;;;5.35;2.38;;;;;;;26.22;32.49;100149.66;4925338;29;20052;-81
2022/08/01 07:19:30;;;;;;;5.15;2.00;;;;;;;26.35;31.92;100157.88;4927331;29;20055;-81
2022/08/01 07:21:57;;;;;;;5.28;2.00;;;;;;;26.22;31.87;100162.16;4924096;29;20467;-80
2022/08/01 07:24:24;;;;;;;2.97;2.22;;;;;;;26.07;31.96;100121.06;4919663;29;20074;-82
2022/08/01 07:26:57;;;;;;;4.20;1.90;;;;;;;26.24;31.34;100131.72;4915437;29;20075;-80
2022/08/01 07:29:25;;;;;;;4.45;1.98;;;;;;;26.29;31.89;100144.81;4931434;29;20063;-82
2022/08/01 07:31:53;;;;;;;2.63;2.10;;;;;;;26.55;31.75;100157.56;4916672;29;20051;-82
2022/08/01 07:34:22;;;;;;;4.80;2.35;;;;;;;26.51;31.22;100121.19;4924280;29;20044;-85
2022/08/01 07:36:49;;;;;;;2.97;1.55;;;;;;;26.52;31.08;100147.03;4927880;29;20080;-82
2022/08/01 07:39:16;;;;;;;1.50;1.40;;;;;;;26.52;30.43;100163.09;4921146;29;20056;-82
2022/08/01 07:41:43;;;;;;;3.22;1.70;;;;;;;26.64;30.70;100158.88;4925637;29;20048;-82
2022/08/01 07:44:30;;;;;;;2.60;1.83;;;;;;;26.67;30.76;100153.34;4921077;29;20048;-81
2022/08/01 07:46:57;;;;;;;5.75;1.98;;;;;;;26.68;30.71;100155.06;4926013;29;20502;-82
2022/08/01 07:49:24;;;;;;;3.33;1.80;;;;;;;26.50;31.31;100134.66;4940867;29;20090;-83
2022/08/01 07:51:52;;;;;;;7.28;2.47;;;;;;;26.68;31.24;100133.63;4923942;29;20051;-82
2022/08/01 07:54:33;;;;;;;3.97;1.90;;;;;;;26.72;31.39;100123.59;4924297;29;20506;-81
2022/08/01 07:57:02;;;;;;;2.88;2.00;;;;;;;26.86;31.50;100130.78;4925821;28;20055;-82
2022/08/01 07:59:29;;;;;;;3.28;2.10;;;;;;;27.01;30.63;100148.63;4926379;29;20463;-81
2022/08/01 08:01:56;;;;;;;3.17;2.20;;;;;;;27.00;30.43;100140.69;4923633;29;20506;-81
2022/08/01 08:04:24;;;;;;;2.20;2.00;;;;;;;26.90;30.60;100143.06;4926532;29;20127;-82
2022/08/01 08:06:53;;;;;;;1.98;1.88;;;;;;;26.77;31.32;100142.94;4924845;29;20055;-81
2022/08/01 08:09:20;;;;;;;3.58;1.92;;;;;;;26.47;31.38;100106.25;4941687;29;20060;-83
2022/08/01 08:11:47;;;;;;;3.03;2.20;;;;;;;26.40;31.70;100130.81;4930617;29;20055;-82
2022/08/01 08:14:18;;;;;;;3.58;2.42;;;;;;;26.57;31.60;100128.03;4937236;29;20154;-79
2022/08/01 08:16:45;;;;;;;3.22;1.95;;;;;;;26.81;30.93;100135.56;4938616;29;20083;-79
2022/08/01 08:19:12;;;;;;;6.20;2.10;;;;;;;26.78;30.98;100147.34;4923368;29;20060;-80
2022/08/01 08:21:40;;;;;;;4.25;1.92;;;;;;;26.66;30.77;100115.91;4970849;28;20047;-81
2022/08/01 08:24:20;;;;;;;3.53;2.20;;;;;;;26.82;30.57;100097.09;4948406;29;20085;-83
2022/08/01 08:27:00;;;;;;;3.33;2.05;;;;;;;27.14;30.51;100132.66;4948561;29;20060;-81
2022/08/01 08:29:29;;;;;;;4.18;2.05;;;;;;;26.97;30.38;100136.34;4939136;29;20063;-84
2022/08/01 08:31:57;;;;;;;2.15;1.60;;;;;;;26.86;30.25;100123.59;4931199;29;20058;-82
2022/08/01 08:34:26;;;;;;;2.70;2.05;;;;;;;26.72;29.80;100097.66;4930559;29;20115;-80
2022/08/01 08:36:55;;;;;;;4.13;1.98;;;;;;;26.99;30.08;100125.56;4927965;29;20142;-82
2022/08/01 08:39:22;;;;;;;7.68;2.33;;;;;;;27.15;29.46;100112.94;4928656;29;20066;-83
2022/08/01 08:41:49;;;;;;;1.90;1.80;;;;;;;27.47;29.33;100124.38;4930027;29;20575;-83
2022/08/01 08:44:17;;;;;;;1.80;1.65;;;;;;;27.51;29.10;100112.50;4930686;29;20060;-84
2022/08/01 08:46:46;;;;;;;2.15;1.70;;;;;;;27.32;28.56;100130.72;4950991;29;20052;-82
2022/08/01 08:49:24;;;;;;;;;;;;;;;27.09;29.48;100118.69;4925587;29;20083;-83
2022/08/01 08:51:53;;;;;;;17.30;3.30;;;;;;;27.63;28.72;100115.38;4942249;29;20352;-84
2022/08/01 08:54:23;;;;;;;12.13;3.15;;;;;;;27.69;28.37;100090.84;4941133;29;20052;-81
2022/08/01 08:56:59;;;;;;;3.45;2.08;;;;;;;27.98;27.69;100119.38;4942753;29;20411;-80
2022/08/01 08:59:26;;;;;;;12.33;2.90;;;;;;;27.94;27.71;100116.94;4940661;29;20056;-80
2022/08/01 09:01:54;;;;;;;11.68;3.13;;;;;;;28.22;27.29;100124.06;4920690;29;20052;-80
2022/08/01 09:04:24;;;;;;;26.48;3.85;;;;;;;28.49;27.39;100112.50;4935857;29;20056;-81
2022/08/01 09:06:53;;;;;;;3.92;2.00;;;;;;;28.61;26.91;100119.72;4921554;29;20086;-82
2022/08/01 09:09:20;;;;;;;2.17;1.63;;;;;;;28.22;27.50;100067.66;4920139;29;20091;-79
2022/08/01 09:11:47;;;;;;;4.82;1.92;;;;;;;28.43;27.61;100091.38;4918912;29;20166;-82
2022/08/01 09:14:26;;;;;;;4.88;2.17;;;;;;;28.62;27.57;100108.00;4918443;29;20078;-84
2022/08/01 09:17:10;;;;;;;5.93;2.47;;;;;;;28.60;26.80;100093.81;4918217;29;20056;-82
2022/08/01 09:19:43;;;;;;;3.33;2.17;;;;;;;28.58;26.83;100103.78;4901364;29;20060;-82
2022/08/01 09:22:14;;;;;;;4.05;1.95;;;;;;;28.59;26.58;100092.09;4918965;29;20083;-83
2022/08/01 09:24:41;;;;;;;5.03;2.20;;;;;;;28.56;26.67;100073.47;4918380;29;20154;-80
2022/08/01 09:27:20;;;;;;;5.70;2.22;;;;;;;28.64;26.32;100110.59;4917727;29;20634;-80
2022/08/01 09:29:50;;;;;;;2.83;1.83;;;;;;;28.67;26.42;100097.78;4918202;29;20529;-83
2022/08/01 09:32:30;;;;;;;6.68;2.42;;;;;;;28.70;25.84;100078.78;4933819;29;20115;-81
2022/08/01 09:35:24;;;;;;;14.75;3.60;;;;;;;29.07;26.00;100095.03;4919366;29;20056;-83
2022/08/01 09:38:29;;;;;;;2.67;2.33;;;;;;;29.42;25.30;100094.41;4931771;29;20052;-82
2022/08/01 09:40:59;;;;;;;2.40;2.00;;;;;;;29.54;22.85;100095.38;4896307;29;20156;-80
2022/08/01 09:43:30;;;;;;;4.95;2.60;;;;;;;29.09;24.27;100057.28;4917516;29;20200;-84
2022/08/01 09:46:00;;;;;;;3.58;2.00;;;;;;;29.07;24.44;100095.03;4919313;29;20051;-81
2022/08/01 09:48:27;;;;;;;8.17;2.70;;;;;;;28.73;24.93;100102.75;4916896;29;20150;-82
2022/08/01 09:50:58;;;;;;;6.22;2.60;;;;;;;28.86;25.14;100091.16;4917158;29;20108;-80
2022/08/01 09:53:47;;;;;;;2.75;2.30;;;;;;;28.80;24.64;100097.81;4917257;29;20087;-81
2022/08/01 09:56:20;;;;;;;2.22;2.00;;;;;;;28.49;24.91;100086.47;4917474;29;20052;-84
2022/08/01 09:58:50;;;;;;;;;;;;;;;27.98;26.03;100088.94;4917825;29;20060;-80
2022/08/01 10:01:26;;;;;;;3.58;2.35;;;;;;;27.57;27.88;100092.47;4917462;29;20408;-82
2022/08/01 10:04:10;;;;;;;5.63;2.30;;;;;;;27.07;28.91;100078.56;4917164;29;20507;-80
2022/08/01 10:06:39;;;;;;;1.77;1.67;;;;;;;26.56;28.92;100078.09;4916823;29;20481;-80
2022/08/01 10:09:07;;;;;;;3.00;2.20;;;;;;;26.08;29.63;100058.56;4931634;29;20064;-79
2022/08/01 10:11:38;;;;;;;3.95;2.30;;;;;;;26.14;29.89;100072.47;4921624;29;20060;-79
2022/08/01 10:14:07;;;;;;;3.92;2.45;;;;;;;26.16;29.16;100085.78;4911166;29;20051;-80
2022/08/01 10:16:36;;;;;;;2.25;2.05;;;;;;;25.96;30.48;100068.16;4920128;29;20055;-80
2022/08/01 10:19:07;;;;;;;3.55;2.40;;;;;;;25.87;29.69;100074.00;4927151;29;20510;-81
2022/08/01 10:21:41;;;;;;;3.90;2.22;;;;;;;25.95;30.53;100086.03;4922884;29;20048;-82
2022/08/01 10:24:27;;;;;;;4.88;1.92;;;;;;;25.45;30.59;100030.88;4919353;29;20055;-81
2022/08/01 10:27:02;;;;;;;3.33;2.15;;;;;;;25.55;31.27;100090.03;4924264;29;20522;-82
2022/08/01 10:29:49;;;;;;;1.95;1.85;;;;;;;25.39;31.28;100078.47;4939095;29;20058;-82
2022/08/01 10:32:35;;;;;;;3.42;2.50;;;;;;;25.31;31.29;100086.91;4907996;29;20470;-81
2022/08/01 10:35:07;;;;;;;2.47;2.05;;;;;;;25.11;31.31;100031.84;4923259;29;20055;-82
2022/08/01 10:37:41;;;;;;;3.92;2.17;;;;;;;25.25;30.58;100036.44;4925475;29;20048;-81
2022/08/01 10:40:20;;;;;;;2.97;2.40;;;;;;;25.58;30.69;100064.97;4932867;29;20054;-80
2022/08/01 10:42:57;;;;;;;3.00;2.22;;;;;;;25.92;29.73;100066.59;4928127;29;20067;-82
2022/08/01 10:45:28;;;;;;;2.97;2.30;;;;;;;26.35;29.51;100078.38;4918200;29;20430;-81
2022/08/01 10:48:09;;;;;;;4.55;2.20;;;;;;;26.79;29.10;100060.63;4925099;29;20074;-81
2022/08/01 10:51:02;;;;;;;3.45;2.20;;;;;;;27.03;28.83;100060.94;4923944;29;20502;-79
2022/08/01 10:53:29;;;;;;;2.50;2.30;;;;;;;27.41;28.11;100075.63;4923134;29;20048;-80
2022/08/01 10:56:10;;;;;;;4.20;2.30;;;;;;;27.76;27.79;100054.56;4922629;29;20063;-80
2022/08/01 10:58:42;;;;;;;6.38;2.40;;;;;;;27.96;27.66;100034.50;4924889;29;20090;-80
2022/08/01 11:01:19;;;;;;;4.65;2.50;;;;;;;28.30;27.20;100051.91;4922715;29;20148;-79
2022/08/01 11:03:57;;;;;;;3.80;2.45;;;;;;;28.64;26.53;100059.53;4921240;29;20136;-81
2022/08/01 11:06:33;;;;;;;3.17;2.35;;;;;;;28.89;25.73;100050.59;4916590;29;20048;-79
2022/08/01 11:09:24;;;;;;;3.60;2.20;;;;;;;28.94;25.72;100053.84;4916440;29;20426;-81
2022/08/01 11:12:17;;;;;;;4.35;2.60;;;;;;;28.82;25.84;100006.31;4915336;29;20063;-80
2022/08/01 11:14:58;;;;;;;5.63;2.58;;;;;;;29.12;24.68;100055.25;4915536;29;20067;-81
2022/08/01 11:17:41;;;;;;;3.67;2.60;;;;;;;28.95;25.02;100048.38;4916559;29;20091;-79
2022/08/01 11:20:09;;;;;;;7.68;2.63;;;;;;;29.36;24.87;100052.66;4916211;29;20483;-80
2022/08/01 11:22:57;;;;;;;3.22;2.17;;;;;;;29.31;25.20;100046.75;4916200;29;20051;-81
2022/08/01 11:25:37;;;;;;;4.80;2.67;;;;;;;29.12;25.92;100049.88;4916432;29;20094;-82
2022/08/01 11:28:26;;;;;;;2.85;2.30;;;;;;;29.13;25.76;100005.91;4916613;29;20055;-84
2022/08/01 11:31:02;;;;;;;4.00;2.45;;;;;;;29.48;25.41;100041.97;4916534;29;20063;-84
2022/08/01 11:33:42;;;;;;;9.63;3.65;;;;;;;29.53;24.99;100037.13;4916429;29;20090;-82
2022/08/01 11:36:13;;;;;;;3.75;2.92;;;;;;;29.45;24.84;100045.75;4916608;29;20052;-83
2022/08/01 11:38:42;;;;;;;4.43;2.67;;;;;;;29.17;25.48;100045.06;4922435;29;20586;-82
2022/08/01 11:41:11;;;;;;;2.53;2.30;;;;;;;28.73;25.89;100024.81;4933963;29;20458;-82
2022/08/01 11:44:06;;;;;;;2.72;2.50;;;;;;;28.67;26.48;100032.44;4934995;29;20056;-81